createdAt,value
2018-09-13T00:00:18.294Z,2.80
2018-09-13T00:01:18.470Z,2.50
2018-09-13T00:02:18.648Z,2.60
2018-09-13T00:03:18.827Z,2.70
2018-09-13T00:04:19.004Z,2.70
2018-09-13T00:05:19.180Z,2.50
2018-09-13T00:06:19.357Z,2.70
2018-09-13T00:07:19.530Z,2.90
2018-09-13T00:08:19.703Z,2.70
2018-09-13T00:09:19.877Z,2.90
2018-09-13T00:10:20.048Z,2.80
2018-09-13T00:11:20.223Z,2.70
2018-09-13T00:12:20.398Z,2.90
2018-09-13T00:13:20.572Z,2.90
2018-09-13T00:14:20.743Z,3.10
2018-09-13T00:15:20.916Z,3.20
2018-09-13T00:16:21.087Z,2.70
2018-09-13T00:17:21.256Z,3.00
2018-09-13T00:18:21.432Z,2.50
2018-09-13T00:19:21.600Z,2.60
2018-09-13T00:20:21.778Z,3.30
2018-09-13T00:21:21.951Z,2.80
2018-09-13T00:22:22.126Z,2.60
2018-09-13T00:23:22.302Z,2.80
2018-09-13T00:24:22.478Z,3.10
2018-09-13T00:25:22.656Z,2.90
2018-09-13T00:26:22.834Z,2.70
2018-09-13T00:27:23.013Z,2.90
2018-09-13T00:28:23.197Z,3.00
2018-09-13T00:29:23.367Z,3.00
2018-09-13T00:30:23.550Z,2.90
2018-09-13T00:31:23.725Z,3.00
2018-09-13T00:32:23.912Z,2.90
2018-09-13T00:33:24.080Z,2.60
2018-09-13T00:34:24.263Z,2.80
2018-09-13T00:35:24.426Z,2.80
2018-09-13T00:36:24.599Z,2.50
2018-09-13T00:37:24.781Z,2.90
2018-09-13T00:38:24.954Z,2.70
2018-09-13T00:39:25.135Z,2.70
2018-09-13T00:40:25.314Z,2.80
2018-09-13T00:41:25.481Z,2.90
2018-09-13T00:42:25.656Z,2.80
2018-09-13T00:43:25.829Z,2.40
2018-09-13T00:44:26.003Z,2.70
2018-09-13T00:45:26.174Z,2.50
2018-09-13T00:46:26.351Z,2.60
2018-09-13T00:47:26.529Z,2.70
2018-09-13T00:48:26.700Z,2.70
2018-09-13T00:49:26.870Z,2.50
2018-09-13T00:50:27.052Z,2.60
2018-09-13T00:51:27.229Z,2.40
2018-09-13T00:52:27.401Z,2.80
2018-09-13T00:53:27.573Z,2.60
2018-09-13T00:54:27.751Z,3.00
2018-09-13T00:55:27.927Z,2.70
2018-09-13T00:56:28.098Z,2.60
2018-09-13T00:57:28.271Z,2.60
2018-09-13T00:58:28.441Z,2.60
2018-09-13T00:59:28.615Z,2.40
2018-09-13T01:00:28.792Z,2.40
2018-09-13T01:01:28.962Z,2.40
2018-09-13T01:02:29.143Z,2.50
2018-09-13T01:03:29.308Z,2.70
2018-09-13T01:04:29.477Z,2.50
2018-09-13T01:05:29.653Z,2.60
2018-09-13T01:06:29.822Z,2.60
2018-09-13T01:07:29.999Z,2.40
2018-09-13T01:08:30.179Z,2.30
2018-09-13T01:09:30.357Z,2.30
2018-09-13T01:10:30.536Z,2.50
2018-09-13T01:11:30.714Z,2.80
2018-09-13T01:12:30.883Z,3.10
2018-09-13T01:13:31.057Z,2.90
2018-09-13T01:14:31.230Z,2.90
2018-09-13T01:15:31.420Z,3.00
2018-09-13T01:16:31.590Z,2.90
2018-09-13T01:17:31.773Z,2.80
2018-09-13T01:18:31.946Z,2.90
2018-09-13T01:19:32.125Z,3.10
2018-09-13T01:20:32.298Z,2.90
2018-09-13T01:21:32.475Z,2.70
2018-09-13T01:22:32.653Z,2.90
2018-09-13T01:23:32.850Z,2.90
2018-09-13T01:24:33.014Z,2.90
2018-09-13T01:25:33.204Z,2.90
2018-09-13T01:26:33.368Z,2.90
2018-09-13T01:27:33.533Z,3.10
2018-09-13T01:28:33.713Z,2.90
2018-09-13T01:29:33.889Z,3.00
2018-09-13T01:30:34.066Z,2.90
2018-09-13T01:31:34.244Z,3.10
2018-09-13T01:32:34.414Z,2.60
2018-09-13T01:33:34.589Z,2.90
2018-09-13T01:34:34.768Z,3.10
2018-09-13T01:35:34.949Z,3.20
2018-09-13T01:36:35.134Z,3.20
2018-09-13T01:37:35.311Z,3.20
2018-09-13T01:38:35.723Z,3.20
2018-09-13T01:39:35.647Z,3.30
2018-09-13T01:40:35.829Z,2.90
2018-09-13T01:41:36.004Z,2.90
2018-09-13T01:42:36.235Z,3.10
2018-09-13T01:43:36.300Z,3.10
2018-09-13T01:44:36.506Z,3.10
2018-09-13T01:45:36.703Z,4.00
2018-09-13T01:46:36.877Z,3.40
2018-09-13T01:47:37.074Z,3.10
2018-09-13T01:48:37.252Z,3.50
2018-09-13T01:49:37.430Z,3.50
2018-09-13T01:50:37.607Z,3.10
2018-09-13T01:51:37.780Z,3.70
2018-09-13T01:52:37.953Z,3.50
2018-09-13T01:53:38.122Z,4.20
2018-09-13T01:54:38.297Z,3.40
2018-09-13T01:55:38.473Z,3.40
2018-09-13T01:56:38.646Z,3.80
2018-09-13T01:57:38.821Z,4.00
2018-09-13T01:58:38.996Z,3.50
2018-09-13T01:59:39.183Z,4.10
2018-09-13T02:00:39.353Z,3.50
2018-09-13T02:01:39.534Z,3.90
2018-09-13T02:02:39.707Z,4.00
2018-09-13T02:03:39.875Z,3.90
2018-09-13T02:04:40.054Z,3.90
2018-09-13T02:05:40.229Z,3.90
2018-09-13T02:06:40.410Z,4.50
2018-09-13T02:07:40.589Z,4.00
2018-09-13T02:08:40.759Z,3.90
2018-09-13T02:09:40.934Z,4.40
2018-09-13T02:10:41.112Z,3.80
2018-09-13T02:11:41.287Z,4.00
2018-09-13T02:12:41.462Z,3.80
2018-09-13T02:13:41.643Z,4.30
2018-09-13T02:14:41.815Z,3.90
2018-09-13T02:15:41.993Z,3.80
2018-09-13T02:16:42.162Z,4.00
2018-09-13T02:17:42.333Z,4.10
2018-09-13T02:18:42.508Z,4.00
2018-09-13T02:19:42.678Z,4.20
2018-09-13T02:20:42.858Z,3.60
2018-09-13T02:21:43.038Z,4.10
2018-09-13T02:22:43.221Z,4.20
2018-09-13T02:23:43.392Z,4.00
2018-09-13T02:24:43.570Z,3.70
2018-09-13T02:25:43.741Z,3.70
2018-09-13T02:26:43.912Z,4.00
2018-09-13T02:27:44.093Z,3.70
2018-09-13T02:28:44.275Z,4.20
2018-09-13T02:29:44.452Z,4.00
2018-09-13T02:30:44.625Z,4.00
2018-09-13T02:31:44.801Z,3.80
2018-09-13T02:32:44.981Z,3.90
2018-09-13T02:33:45.171Z,3.70
2018-09-13T02:34:45.344Z,3.80
2018-09-13T02:35:45.520Z,3.70
2018-09-13T02:36:45.686Z,4.00
2018-09-13T02:37:45.871Z,3.70
2018-09-13T02:38:46.041Z,4.00
2018-09-13T02:39:46.219Z,4.10
2018-09-13T02:40:46.397Z,3.60
2018-09-13T02:41:46.579Z,3.40
2018-09-13T02:42:46.756Z,3.40
2018-09-13T02:43:46.929Z,3.90
2018-09-13T02:44:47.109Z,3.60
2018-09-13T02:45:47.286Z,4.00
2018-09-13T02:46:47.469Z,3.60
2018-09-13T02:47:47.635Z,3.50
2018-09-13T02:48:47.810Z,3.80
2018-09-13T02:49:47.991Z,3.60
2018-09-13T02:50:48.170Z,3.90
2018-09-13T02:51:48.352Z,3.30
2018-09-13T02:52:48.526Z,3.60
2018-09-13T02:53:48.703Z,3.50
2018-09-13T02:54:48.888Z,3.40
2018-09-13T02:55:49.062Z,3.90
2018-09-13T02:56:49.237Z,3.60
2018-09-13T02:57:49.412Z,3.40
2018-09-13T02:58:49.590Z,3.70
2018-09-13T02:59:49.771Z,3.50
2018-09-13T03:00:49.942Z,3.40
2018-09-13T03:01:50.119Z,3.80
2018-09-13T03:02:50.287Z,3.70
2018-09-13T03:03:50.479Z,3.70
2018-09-13T03:04:50.655Z,3.70
2018-09-13T03:05:50.832Z,3.50
2018-09-13T03:06:51.011Z,3.70
2018-09-13T03:07:51.184Z,3.80
2018-09-13T03:08:51.365Z,3.30
2018-09-13T03:09:51.539Z,3.40
2018-09-13T03:10:51.723Z,3.30
2018-09-13T03:11:51.891Z,3.50
2018-09-13T03:12:52.070Z,3.80
2018-09-13T03:13:52.240Z,3.30
2018-09-13T03:14:52.426Z,3.60
2018-09-13T03:15:52.604Z,3.60
2018-09-13T03:16:52.870Z,3.60
2018-09-13T03:17:53.008Z,3.40
2018-09-13T03:18:53.208Z,3.30
2018-09-13T03:19:53.382Z,3.40
2018-09-13T03:20:53.574Z,3.50
2018-09-13T03:21:53.756Z,3.40
2018-09-13T03:22:53.935Z,3.10
2018-09-13T03:23:54.115Z,2.90
2018-09-13T03:24:54.290Z,3.30
2018-09-13T03:25:54.462Z,3.50
2018-09-13T03:26:54.639Z,3.20
2018-09-13T03:27:54.819Z,2.80
2018-09-13T03:28:54.988Z,3.10
2018-09-13T03:29:55.168Z,3.40
2018-09-13T03:30:55.341Z,3.20
2018-09-13T03:31:55.514Z,2.90
2018-09-13T03:32:55.686Z,2.90
2018-09-13T03:33:55.856Z,3.10
2018-09-13T03:34:56.026Z,3.10
2018-09-13T03:35:56.199Z,3.10
2018-09-13T03:36:56.372Z,3.30
2018-09-13T03:37:56.545Z,3.10
2018-09-13T03:38:56.722Z,3.80
2018-09-13T03:39:56.897Z,3.40
2018-09-13T03:40:57.067Z,3.10
2018-09-13T03:41:57.284Z,3.20
2018-09-13T03:42:57.430Z,3.30
2018-09-13T03:43:57.605Z,2.90
2018-09-13T03:44:57.780Z,3.00
2018-09-13T03:45:57.957Z,3.10
2018-09-13T03:46:58.134Z,3.00
2018-09-13T03:47:58.315Z,3.10
2018-09-13T03:48:58.491Z,3.20
2018-09-13T03:49:58.664Z,3.20
2018-09-13T03:50:58.837Z,3.20
2018-09-13T03:51:59.012Z,3.30
2018-09-13T03:52:59.185Z,3.20
2018-09-13T03:53:59.361Z,3.00
2018-09-13T03:54:59.534Z,3.10
2018-09-13T03:55:59.714Z,2.90
2018-09-13T03:56:59.890Z,3.30
2018-09-13T03:58:00.062Z,3.10
2018-09-13T03:59:00.243Z,3.20
2018-09-13T04:00:00.416Z,3.20
2018-09-13T04:01:00.588Z,3.00
2018-09-13T04:02:00.759Z,3.00
2018-09-13T04:03:00.932Z,2.80
2018-09-13T04:04:01.109Z,3.20
2018-09-13T04:05:01.285Z,2.90
2018-09-13T04:06:01.457Z,2.90
2018-09-13T04:07:01.632Z,3.30
2018-09-13T04:08:01.804Z,3.50
2018-09-13T04:09:02.035Z,3.10
2018-09-13T04:10:02.160Z,3.30
2018-09-13T04:11:02.341Z,3.60
2018-09-13T04:12:02.512Z,3.30
2018-09-13T04:13:02.684Z,3.20
2018-09-13T04:14:02.856Z,3.40
2018-09-13T04:15:03.027Z,3.10
2018-09-13T04:16:03.199Z,3.30
2018-09-13T04:17:03.374Z,3.00
2018-09-13T04:18:03.546Z,3.30
2018-09-13T04:19:03.725Z,3.30
2018-09-13T04:20:03.893Z,3.70
2018-09-13T04:21:04.066Z,3.50
2018-09-13T04:22:04.239Z,3.70
2018-09-13T04:23:04.412Z,3.30
2018-09-13T04:24:04.584Z,3.20
2018-09-13T04:25:04.765Z,3.10
2018-09-13T04:26:04.936Z,3.60
2018-09-13T04:27:05.117Z,3.10
2018-09-13T04:28:05.288Z,3.30
2018-09-13T04:29:05.468Z,3.30
2018-09-13T04:30:05.645Z,3.00
2018-09-13T04:31:05.814Z,3.00
2018-09-13T04:32:05.989Z,3.20
2018-09-13T04:33:06.178Z,3.50
2018-09-13T04:34:06.351Z,4.10
2018-09-13T04:35:06.528Z,3.50
2018-09-13T04:36:06.787Z,3.70
2018-09-13T04:37:06.881Z,4.00
2018-09-13T04:38:07.060Z,3.80
2018-09-13T04:39:07.245Z,4.20
2018-09-13T04:40:07.422Z,4.30
2018-09-13T04:41:07.603Z,4.20
2018-09-13T04:42:07.784Z,4.20
2018-09-13T04:43:07.945Z,3.90
2018-09-13T04:44:08.120Z,3.90
2018-09-13T04:45:08.295Z,3.90
2018-09-13T04:46:08.470Z,4.00
2018-09-13T04:47:08.661Z,4.30
2018-09-13T04:48:08.840Z,4.30
2018-09-13T04:49:09.046Z,4.10
2018-09-13T04:50:09.184Z,3.90
2018-09-13T04:51:09.374Z,4.00
2018-09-13T04:52:09.543Z,4.40
2018-09-13T04:53:09.720Z,4.30
2018-09-13T04:54:09.905Z,4.20
2018-09-13T04:55:10.089Z,4.40
2018-09-13T04:56:10.262Z,4.40
2018-09-13T04:57:10.443Z,4.00
2018-09-13T04:58:10.631Z,4.50
2018-09-13T04:59:10.816Z,4.30
2018-09-13T05:00:11.194Z,4.50
2018-09-13T05:01:11.195Z,4.10
2018-09-13T05:02:11.393Z,4.40
2018-09-13T05:03:11.554Z,4.30
2018-09-13T05:04:11.735Z,4.10
2018-09-13T05:05:11.910Z,3.90
2018-09-13T05:06:12.087Z,3.80
2018-09-13T05:07:12.262Z,4.20
2018-09-13T05:08:12.453Z,3.90
2018-09-13T05:09:12.632Z,4.10
2018-09-13T05:10:12.844Z,3.50
2018-09-13T05:11:13.039Z,3.40
2018-09-13T05:12:13.214Z,3.60
2018-09-13T05:13:13.399Z,3.60
2018-09-13T05:14:13.578Z,3.70
2018-09-13T05:15:13.752Z,3.50
2018-09-13T05:16:13.933Z,3.40
2018-09-13T05:17:14.112Z,3.10
2018-09-13T05:18:14.287Z,3.60
2018-09-13T05:19:14.466Z,3.20
2018-09-13T05:20:14.916Z,3.20
2018-09-13T05:21:15.024Z,3.60
2018-09-13T05:22:14.959Z,3.70
2018-09-13T05:23:15.137Z,3.90
2018-09-13T05:24:15.343Z,3.70
2018-09-13T05:25:15.496Z,3.70
2018-09-13T05:26:15.685Z,3.70
2018-09-13T05:27:15.862Z,3.60
2018-09-13T05:28:16.047Z,3.70
2018-09-13T05:29:16.220Z,3.80
2018-09-13T05:30:16.409Z,4.20
2018-09-13T05:31:16.606Z,3.90
2018-09-13T05:32:16.786Z,3.60
2018-09-13T05:33:16.958Z,3.70
2018-09-13T05:34:17.138Z,3.70
2018-09-13T05:35:17.323Z,3.80
2018-09-13T05:36:17.510Z,3.90
2018-09-13T05:37:17.689Z,3.60
2018-09-13T05:38:18.208Z,3.80
2018-09-13T05:39:18.010Z,3.50
2018-09-13T05:40:18.187Z,3.80
2018-09-13T05:41:18.364Z,4.00
2018-09-13T05:42:19.053Z,4.20
2018-09-13T05:43:21.191Z,4.10
2018-09-13T05:44:23.299Z,4.10
2018-09-13T05:45:19.813Z,4.20
2018-09-13T05:46:20.772Z,3.90
2018-09-13T05:47:22.106Z,3.80
2018-09-13T05:48:19.503Z,3.70
2018-09-13T05:49:19.675Z,3.50
2018-09-13T05:50:19.854Z,3.70
2018-09-13T05:51:20.243Z,3.70
2018-09-13T05:52:20.206Z,3.80
2018-09-13T05:53:20.385Z,3.50
2018-09-13T05:54:20.561Z,3.60
2018-09-13T05:55:20.736Z,3.60
2018-09-13T05:56:20.912Z,3.70
2018-09-13T05:57:21.227Z,3.70
2018-09-13T05:58:21.257Z,3.40
2018-09-13T05:59:21.428Z,3.60
2018-09-13T06:00:21.604Z,3.50
2018-09-13T06:01:21.817Z,3.80
2018-09-13T06:02:21.966Z,3.30
2018-09-13T06:03:22.143Z,3.60
2018-09-13T06:04:22.318Z,3.60
2018-09-13T06:05:22.493Z,4.10
2018-09-13T06:06:22.667Z,3.90
2018-09-13T06:07:22.844Z,3.70
2018-09-13T06:08:23.021Z,3.50
2018-09-13T06:09:23.196Z,3.60
2018-09-13T06:10:23.369Z,3.90
2018-09-13T06:11:23.549Z,4.00
2018-09-13T06:12:23.726Z,4.40
2018-09-13T06:13:23.938Z,3.90
2018-09-13T06:14:24.075Z,4.00
2018-09-13T06:15:24.297Z,4.40
2018-09-13T06:16:24.376Z,3.60
2018-09-13T06:17:24.578Z,3.70
2018-09-13T06:18:24.729Z,3.90
2018-09-13T06:19:24.952Z,3.80
2018-09-13T06:20:25.119Z,4.00
2018-09-13T06:21:25.297Z,3.90
2018-09-13T06:22:25.482Z,4.00
2018-09-13T06:23:25.667Z,3.90
2018-09-13T06:24:25.860Z,4.10
2018-09-13T06:25:29.880Z,3.80
2018-09-13T06:26:30.180Z,3.70
2018-09-13T06:27:29.202Z,3.50
2018-09-13T06:28:27.835Z,4.00
2018-09-13T06:29:28.223Z,3.90
2018-09-13T06:30:28.944Z,3.70
2018-09-13T06:31:27.150Z,3.80
2018-09-13T06:32:27.331Z,4.30
2018-09-13T06:33:27.554Z,3.70
2018-09-13T06:34:27.725Z,4.10
2018-09-13T06:35:27.906Z,3.80
2018-09-13T06:36:28.141Z,3.90
2018-09-13T06:37:28.255Z,3.60
2018-09-13T06:38:28.533Z,3.70
2018-09-13T06:39:32.326Z,3.80
2018-09-13T06:40:31.118Z,4.00
2018-09-13T06:41:31.066Z,4.30
2018-09-13T06:42:32.310Z,3.70
2018-09-13T06:43:29.323Z,3.80
2018-09-13T06:44:29.506Z,4.00
2018-09-13T06:45:29.677Z,3.80
2018-09-13T06:46:31.337Z,3.40
2018-09-13T06:47:29.988Z,4.80
2018-09-13T06:48:30.225Z,3.90
2018-09-13T06:49:30.350Z,4.10
2018-09-13T06:50:30.533Z,3.80
2018-09-13T06:51:30.721Z,3.80
2018-09-13T06:52:30.906Z,3.90
2018-09-13T06:53:31.120Z,4.20
2018-09-13T06:54:31.278Z,4.20
2018-09-13T06:55:31.475Z,4.10
2018-09-13T06:56:31.646Z,4.10
2018-09-13T06:57:31.831Z,4.40
2018-09-13T06:58:32.012Z,4.10
2018-09-13T06:59:32.185Z,4.20
2018-09-13T07:00:32.695Z,3.80
2018-09-13T07:01:32.814Z,4.50
2018-09-13T07:02:33.211Z,3.90
2018-09-13T07:03:32.866Z,4.10
2018-09-13T07:04:33.059Z,3.90
2018-09-13T07:05:33.219Z,3.90
2018-09-13T07:06:33.426Z,3.60
2018-09-13T07:07:33.960Z,4.00
2018-09-13T07:08:33.845Z,4.20
2018-09-13T07:09:33.967Z,4.20
2018-09-13T07:10:34.012Z,4.30
2018-09-13T07:11:34.203Z,4.50
2018-09-13T07:12:34.449Z,4.60
2018-09-13T07:13:34.485Z,4.20
2018-09-13T07:14:34.692Z,5.10
2018-09-13T07:15:34.869Z,5.10
2018-09-13T07:16:35.447Z,4.70
2018-09-13T07:17:35.151Z,4.40
2018-09-13T07:18:35.422Z,4.80
2018-09-13T07:19:36.005Z,4.60
2018-09-13T07:20:35.736Z,4.80
2018-09-13T07:21:35.917Z,4.60
2018-09-13T07:22:36.279Z,4.60
2018-09-13T07:23:36.338Z,5.00
2018-09-13T07:24:36.410Z,5.30
2018-09-13T07:25:37.540Z,5.10
2018-09-13T07:26:36.749Z,5.00
2018-09-13T07:27:38.290Z,4.70
2018-09-13T07:28:39.431Z,5.50
2018-09-13T07:29:37.330Z,5.50
2018-09-13T07:30:37.390Z,5.90
2018-09-13T07:31:37.573Z,6.10
2018-09-13T07:32:39.640Z,5.60
2018-09-13T07:33:38.263Z,6.10
2018-09-13T07:34:39.875Z,5.90
2018-09-13T07:35:38.306Z,6.20
2018-09-13T07:36:39.457Z,6.40
2018-09-13T07:37:41.791Z,6.30
2018-09-13T07:38:39.014Z,6.30
2018-09-13T07:39:39.779Z,6.10
2018-09-13T07:40:39.129Z,6.10
2018-09-13T07:41:39.314Z,5.90
2018-09-13T07:42:42.255Z,5.90
2018-09-13T07:43:40.440Z,7.20
2018-09-13T07:44:39.870Z,7.00
2018-09-13T07:45:42.944Z,6.60
2018-09-13T07:46:43.456Z,6.60
2018-09-13T07:47:41.202Z,6.10
2018-09-13T07:48:42.282Z,6.60
2018-09-13T07:49:41.346Z,6.40
2018-09-13T07:50:41.521Z,5.80
2018-09-13T07:51:44.489Z,6.10
2018-09-13T07:52:44.972Z,6.10
2018-09-13T07:53:43.234Z,6.20
2018-09-13T07:54:41.780Z,6.30
2018-09-13T07:55:42.393Z,6.30
2018-09-13T07:56:41.900Z,6.50
2018-09-13T07:57:42.302Z,6.70
2018-09-13T07:58:43.689Z,7.00
2018-09-13T07:59:43.383Z,6.20
2018-09-13T08:00:44.420Z,6.10
2018-09-13T08:01:42.588Z,6.50
2018-09-13T08:02:42.785Z,5.90
2018-09-13T08:03:42.953Z,6.60
2018-09-13T08:04:43.144Z,5.80
2018-09-13T08:05:43.314Z,6.50
2018-09-13T08:06:43.504Z,6.30
2018-09-13T08:07:43.874Z,5.90
2018-09-13T08:08:43.875Z,6.40
2018-09-13T08:09:44.066Z,6.20
2018-09-13T08:10:44.229Z,6.30
2018-09-13T08:11:44.444Z,5.30
2018-09-13T08:12:45.166Z,5.70
2018-09-13T08:13:45.456Z,6.20
2018-09-13T08:14:44.885Z,6.00
2018-09-13T08:15:45.069Z,6.00
2018-09-13T08:16:45.276Z,5.80
2018-09-13T08:17:45.453Z,6.00
2018-09-13T08:18:45.675Z,5.50
2018-09-13T08:19:46.087Z,6.40
2018-09-13T08:20:46.030Z,6.10
2018-09-13T08:21:46.228Z,6.10
2018-09-13T08:22:46.259Z,6.10
2018-09-13T08:23:46.647Z,5.50
2018-09-13T08:24:46.623Z,5.50
2018-09-13T08:25:46.892Z,6.20
2018-09-13T08:26:47.022Z,5.80
2018-09-13T08:27:47.244Z,5.70
2018-09-13T08:28:47.298Z,5.90
2018-09-13T08:29:47.497Z,6.20
2018-09-13T08:30:47.668Z,6.10
2018-09-13T08:31:47.850Z,6.30
2018-09-13T08:32:48.029Z,6.20
2018-09-13T08:33:48.224Z,5.50
2018-09-13T08:34:48.481Z,6.20
2018-09-13T08:35:48.587Z,6.10
2018-09-13T08:36:48.787Z,6.00
2018-09-13T08:37:48.944Z,6.60
2018-09-13T08:38:49.132Z,6.20
2018-09-13T08:39:49.361Z,6.20
2018-09-13T08:40:49.490Z,6.30
2018-09-13T08:41:49.666Z,6.00
2018-09-13T08:42:49.846Z,6.10
2018-09-13T08:43:50.025Z,6.30
2018-09-13T08:44:50.208Z,6.30
2018-09-13T08:45:50.427Z,6.00
2018-09-13T08:46:50.624Z,6.70
2018-09-13T08:47:50.801Z,6.40
2018-09-13T08:48:50.985Z,6.10
2018-09-13T08:49:51.171Z,6.00
2018-09-13T08:50:51.343Z,6.00
2018-09-13T08:51:51.542Z,5.90
2018-09-13T08:52:51.705Z,6.10
2018-09-13T08:53:51.922Z,6.50
2018-09-13T08:54:52.154Z,6.10
2018-09-13T08:55:52.211Z,6.00
2018-09-13T08:56:52.396Z,6.60
2018-09-13T08:57:52.588Z,5.90
2018-09-13T08:58:52.844Z,6.40
2018-09-13T08:59:54.493Z,5.90
2018-09-13T09:00:53.314Z,6.40
2018-09-13T09:01:53.280Z,6.10
2018-09-13T09:02:53.634Z,6.30
2018-09-13T09:03:53.585Z,6.10
2018-09-13T09:04:53.881Z,5.90
2018-09-13T09:05:53.927Z,6.10
2018-09-13T09:06:54.128Z,6.10
2018-09-13T09:07:54.333Z,6.10
2018-09-13T09:08:54.668Z,6.00
2018-09-13T09:09:54.834Z,6.10
2018-09-13T09:10:54.819Z,6.30
2018-09-13T09:11:55.043Z,6.60
2018-09-13T09:12:55.175Z,6.60
2018-09-13T09:13:55.364Z,6.20
2018-09-13T09:14:55.669Z,6.00
2018-09-13T09:15:55.767Z,6.10
2018-09-13T09:16:56.041Z,6.00
2018-09-13T09:17:56.138Z,5.60
2018-09-13T09:18:56.322Z,6.20
2018-09-13T09:19:56.685Z,6.10
2018-09-13T09:20:59.218Z,5.80
2018-09-13T09:21:57.172Z,5.90
2018-09-13T09:22:57.018Z,6.20
2018-09-13T09:23:57.218Z,6.00
2018-09-13T09:24:57.420Z,6.10
2018-09-13T09:25:57.600Z,6.10
2018-09-13T09:26:57.994Z,6.20
2018-09-13T09:27:57.925Z,5.80
2018-09-13T09:28:58.127Z,6.30
2018-09-13T09:29:58.351Z,6.10
2018-09-13T09:30:58.488Z,6.40
2018-09-13T09:31:58.677Z,6.20
2018-09-13T09:32:58.856Z,6.40
2018-09-13T09:33:59.034Z,6.50
2018-09-13T09:34:59.224Z,6.30
2018-09-13T09:35:59.425Z,7.00
2018-09-13T09:36:59.577Z,7.10
2018-09-13T09:37:59.757Z,6.10
2018-09-13T09:38:59.943Z,6.90
2018-09-13T09:40:00.119Z,6.50
2018-09-13T09:41:00.307Z,6.90
2018-09-13T09:42:00.564Z,7.00
2018-09-13T09:43:00.600Z,6.30
2018-09-13T09:44:00.856Z,6.40
2018-09-13T09:45:00.964Z,6.00
2018-09-13T09:46:01.138Z,6.20
2018-09-13T09:47:01.315Z,6.10
2018-09-13T09:48:01.573Z,6.50
2018-09-13T09:49:01.683Z,6.00
2018-09-13T09:50:01.863Z,6.40
2018-09-13T09:51:02.042Z,7.10
2018-09-13T09:52:02.294Z,5.90
2018-09-13T09:53:02.402Z,5.90
2018-09-13T09:54:02.590Z,5.50
2018-09-13T09:55:02.774Z,6.40
2018-09-13T09:56:03.002Z,5.90
2018-09-13T09:57:03.121Z,5.60
2018-09-13T09:58:03.347Z,5.90
2018-09-13T09:59:03.473Z,5.90
2018-09-13T10:00:03.650Z,6.20
2018-09-13T10:01:03.974Z,6.10
2018-09-13T10:02:04.050Z,5.70
2018-09-13T10:03:07.459Z,6.40
2018-09-13T10:04:04.352Z,5.80
2018-09-13T10:05:04.535Z,5.80
2018-09-13T10:06:04.719Z,5.90
2018-09-13T10:07:04.897Z,5.80
2018-09-13T10:08:05.074Z,6.00
2018-09-13T10:09:05.322Z,5.90
2018-09-13T10:10:05.467Z,6.00
2018-09-13T10:11:05.609Z,5.90
2018-09-13T10:12:05.790Z,6.20
2018-09-13T10:13:05.965Z,6.00
2018-09-13T10:14:06.149Z,6.00
2018-09-13T10:15:06.331Z,5.70
2018-09-13T10:16:06.540Z,5.80
2018-09-13T10:17:06.690Z,5.00
2018-09-13T10:18:06.868Z,5.60
2018-09-13T10:19:07.059Z,5.80
2018-09-13T10:20:07.225Z,5.80
2018-09-13T10:21:07.405Z,5.90
2018-09-13T10:22:07.586Z,6.90
2018-09-13T10:23:07.791Z,6.50
2018-09-13T10:24:07.998Z,6.20
2018-09-13T10:25:08.175Z,5.80
2018-09-13T10:26:08.362Z,5.90
2018-09-13T10:27:08.549Z,5.80
2018-09-13T10:28:08.723Z,6.10
2018-09-13T10:29:08.905Z,5.70
2018-09-13T10:30:09.080Z,5.50
2018-09-13T10:31:09.261Z,6.10
2018-09-13T10:32:09.467Z,6.40
2018-09-13T10:33:09.819Z,5.70
2018-09-13T10:34:09.856Z,5.50
2018-09-13T10:35:10.031Z,5.40
2018-09-13T10:36:10.226Z,6.40
2018-09-13T10:37:10.423Z,5.40
2018-09-13T10:38:10.756Z,5.30
2018-09-13T10:39:10.773Z,5.60
2018-09-13T10:40:11.314Z,5.50
2018-09-13T10:41:11.132Z,5.60
2018-09-13T10:42:12.731Z,5.40
2018-09-13T10:43:11.509Z,5.60
2018-09-13T10:44:11.689Z,5.80
2018-09-13T10:45:16.541Z,6.30
2018-09-13T10:46:12.097Z,5.70
2018-09-13T10:47:12.152Z,6.20
2018-09-13T10:48:12.411Z,6.00
2018-09-13T10:49:12.512Z,5.60
2018-09-13T10:50:12.695Z,5.80
2018-09-13T10:51:12.879Z,6.10
2018-09-13T10:52:13.096Z,5.70
2018-09-13T10:53:13.248Z,6.10
2018-09-13T10:54:13.479Z,6.80
2018-09-13T10:55:13.608Z,6.60
2018-09-13T10:56:18.950Z,5.70
2018-09-13T10:57:13.893Z,6.50
2018-09-13T10:58:18.104Z,6.00
2018-09-13T10:59:14.330Z,6.00
2018-09-13T11:00:14.406Z,6.10
2018-09-13T11:01:14.610Z,6.40
2018-09-13T11:02:14.786Z,6.30
2018-09-13T11:03:14.983Z,6.10
2018-09-13T11:04:15.200Z,6.10
2018-09-13T11:05:15.353Z,5.50
2018-09-13T11:06:15.528Z,5.60
2018-09-13T11:07:15.701Z,5.60
2018-09-13T11:08:15.892Z,5.60
2018-09-13T11:09:16.065Z,5.10
2018-09-13T11:10:16.242Z,5.50
2018-09-13T11:11:16.442Z,5.50
2018-09-13T11:12:16.608Z,6.10
2018-09-13T11:13:16.796Z,6.20
2018-09-13T11:14:16.973Z,6.00
2018-09-13T11:15:17.162Z,5.80
2018-09-13T11:16:17.347Z,5.80
2018-09-13T11:17:38.537Z,5.50
2018-09-13T11:18:17.723Z,6.10
2018-09-13T11:19:17.934Z,6.20
2018-09-13T11:20:18.099Z,5.90
2018-09-13T11:21:18.241Z,5.90
2018-09-13T11:22:18.426Z,6.00
2018-09-13T11:23:18.612Z,6.20
2018-09-13T11:24:18.788Z,6.70
2018-09-13T11:25:19.021Z,5.50
2018-09-13T11:26:19.216Z,5.60
2018-09-13T11:27:19.395Z,5.90
2018-09-13T11:28:19.630Z,5.40
2018-09-13T11:29:19.793Z,6.10
2018-09-13T11:30:19.979Z,5.40
2018-09-13T11:31:20.164Z,5.70
2018-09-13T11:32:20.360Z,5.80
2018-09-13T11:33:20.551Z,5.50
2018-09-13T11:34:21.007Z,5.40
2018-09-13T11:35:20.989Z,5.40
2018-09-13T11:36:21.173Z,5.30
2018-09-13T11:37:21.423Z,5.70
2018-09-13T11:38:21.570Z,5.50
2018-09-13T11:39:21.647Z,5.50
2018-09-13T11:40:22.013Z,5.40
2018-09-13T11:41:22.272Z,5.20
2018-09-13T11:42:22.267Z,5.40
2018-09-13T11:43:22.661Z,5.00
2018-09-13T11:44:22.591Z,5.40
2018-09-13T11:45:22.779Z,4.80
2018-09-13T11:46:23.006Z,5.30
2018-09-13T11:47:23.157Z,4.80
2018-09-13T11:48:23.205Z,5.20
2018-09-13T11:49:23.392Z,5.50
2018-09-13T11:50:23.579Z,5.30
2018-09-13T11:51:23.793Z,4.70
2018-09-13T11:52:23.974Z,5.40
2018-09-13T11:53:24.147Z,4.80
2018-09-13T11:54:24.367Z,5.10
2018-09-13T11:55:24.534Z,5.10
2018-09-13T11:56:24.718Z,5.20
2018-09-13T11:57:24.923Z,5.00
2018-09-13T11:58:25.095Z,5.10
2018-09-13T11:59:25.276Z,5.30
2018-09-13T12:00:25.481Z,4.80
2018-09-13T12:01:25.724Z,4.90
2018-09-13T12:02:25.964Z,5.10
2018-09-13T12:03:26.036Z,5.30
2018-09-13T12:04:26.269Z,5.80
2018-09-13T12:05:26.354Z,5.00
2018-09-13T12:06:26.562Z,5.10
2018-09-13T12:07:26.755Z,5.00
2018-09-13T12:08:27.005Z,4.70
2018-09-13T12:09:27.075Z,4.90
2018-09-13T12:10:27.295Z,5.20
2018-09-13T12:11:27.410Z,5.30
2018-09-13T12:12:27.632Z,5.10
2018-09-13T12:13:27.922Z,4.90
2018-09-13T12:14:27.958Z,5.50
2018-09-13T12:15:28.472Z,5.10
2018-09-13T12:16:28.251Z,5.30
2018-09-13T12:17:28.564Z,4.80
2018-09-13T12:18:28.689Z,5.10
2018-09-13T12:19:28.708Z,5.20
2018-09-13T12:20:28.912Z,5.30
2018-09-13T12:21:29.109Z,5.30
2018-09-13T12:22:29.512Z,5.20
2018-09-13T12:23:29.467Z,5.20
2018-09-13T12:24:29.660Z,5.00
2018-09-13T12:25:29.856Z,5.60
2018-09-13T12:26:30.171Z,5.20
2018-09-13T12:27:30.232Z,5.40
2018-09-13T12:28:30.444Z,6.00
2018-09-13T12:29:30.498Z,5.70
2018-09-13T12:30:31.823Z,5.20
2018-09-13T12:31:31.684Z,5.60
2018-09-13T12:32:31.859Z,5.40
2018-09-13T12:33:32.501Z,5.40
2018-09-13T12:34:31.376Z,5.50
2018-09-13T12:35:31.825Z,5.40
2018-09-13T12:36:31.895Z,5.10
2018-09-13T12:37:31.906Z,5.20
2018-09-13T12:38:32.190Z,4.80
2018-09-13T12:39:32.489Z,5.50
2018-09-13T12:40:33.209Z,5.90
2018-09-13T12:41:34.045Z,5.70
2018-09-13T12:42:32.926Z,6.60
2018-09-13T12:43:34.110Z,5.80
2018-09-13T12:44:33.105Z,5.90
2018-09-13T12:45:34.468Z,6.10
2018-09-13T12:46:34.647Z,6.20
2018-09-13T12:47:34.705Z,5.80
2018-09-13T12:48:35.225Z,5.70
2018-09-13T12:49:35.090Z,5.50
2018-09-13T12:50:34.901Z,5.20
2018-09-13T12:51:35.774Z,5.80
2018-09-13T12:52:35.614Z,5.50
2018-09-13T12:53:36.217Z,5.30
2018-09-13T12:54:35.839Z,5.70
2018-09-13T12:55:35.751Z,5.90
2018-09-13T12:56:36.370Z,5.40
2018-09-13T12:57:36.612Z,5.30
2018-09-13T12:58:36.597Z,5.30
2018-09-13T12:59:36.508Z,5.70
2018-09-13T13:00:36.834Z,5.90
2018-09-13T13:01:36.762Z,5.70
2018-09-13T13:02:37.268Z,6.20
2018-09-13T13:03:37.527Z,5.90
2018-09-13T13:04:38.418Z,5.70
2018-09-13T13:05:38.696Z,5.80
2018-09-13T13:06:38.987Z,5.70
2018-09-13T13:07:40.722Z,6.00
2018-09-13T13:08:38.741Z,5.70
2018-09-13T13:09:38.289Z,5.90
2018-09-13T13:10:39.023Z,6.30
2018-09-13T13:11:39.217Z,6.50
2018-09-13T13:12:39.534Z,6.10
2018-09-13T13:13:39.949Z,6.20
2018-09-13T13:14:39.716Z,5.90
2018-09-13T13:15:39.147Z,5.70
2018-09-13T13:16:40.866Z,5.70
2018-09-13T13:17:39.434Z,5.70
2018-09-13T13:18:40.327Z,6.20
2018-09-13T13:19:40.316Z,5.80
2018-09-13T13:20:40.577Z,6.20